Time;durP1;ratioP1;P1;durP2;ratioP2;P2;SDS_P1;SDS_P2;PMS_P1;PMS_P2;Temp;Humidity;BMP_temperature;BMP_pressure;BME280_temperature;BME280_humidity;BME280_pressure;Samples;Min_cycle;Max_cycle;Signal;HPM_P1;HPM_P2
2023/11/17 00:02:32;;;;;;;44.40;26.20;;;;;;;4.56;100.00;100147.58;105971;1260;100391;-78
2023/11/17 00:05:21;;;;;;;50.70;27.90;;;;;;;4.56;100.00;100143.63;105887;1257;97953;-80
2023/11/17 00:08:07;;;;;;;47.60;27.50;;;;;;;4.56;100.00;100140.34;105907;1260;97964;-79
2023/11/17 00:10:53;;;;;;;43.80;27.00;;;;;;;4.56;100.00;100139.92;105832;1257;97944;-78
2023/11/17 00:13:41;;;;;;;42.90;26.80;;;;;;;4.57;100.00;100141.78;106075;1261;101399;-79
2023/11/17 00:16:27;;;;;;;44.30;25.10;;;;;;;4.57;100.00;100140.55;105968;1256;100324;-79
2023/11/17 00:19:12;;;;;;;46.10;26.00;;;;;;;4.58;100.00;100138.34;105936;1257;98589;-79
2023/11/17 00:21:59;;;;;;;39.30;24.00;;;;;;;4.59;100.00;100137.37;105947;1260;97906;-79
2023/11/17 00:24:45;;;;;;;44.00;25.60;;;;;;;4.59;100.00;100137.01;105871;1258;98425;-78
2023/11/17 00:27:30;;;;;;;46.00;24.90;;;;;;;4.60;100.00;100141.48;105645;1260;102963;-78
2023/11/17 00:30:17;;;;;;;42.40;24.20;;;;;;;4.61;100.00;100140.64;105730;1256;99148;-79
2023/11/17 00:33:02;;;;;;;41.70;23.30;;;;;;;4.62;100.00;100142.10;105560;1257;98969;-77
2023/11/17 00:35:48;;;;;;;43.70;24.80;;;;;;;4.63;100.00;100141.54;105613;1260;97988;-77
2023/11/17 00:38:33;;;;;;;35.80;22.20;;;;;;;4.62;100.00;100143.85;105767;1257;99197;-78
2023/11/17 00:41:19;;;;;;;38.20;24.20;;;;;;;4.62;100.00;100143.73;105763;1257;101392;-79
2023/11/17 00:44:04;;;;;;;38.60;23.80;;;;;;;4.63;100.00;100140.38;105716;1259;99294;-78
2023/11/17 00:46:50;;;;;;;39.20;22.70;;;;;;;4.65;100.00;100137.91;105555;1260;97948;-77
2023/11/17 00:49:35;;;;;;;39.80;23.80;;;;;;;4.65;100.00;100137.36;105544;1261;98017;-79
2023/11/17 00:52:21;;;;;;;43.60;24.00;;;;;;;4.65;100.00;100142.21;105630;1259;97989;-78
2023/11/17 00:55:07;;;;;;;44.00;24.50;;;;;;;4.65;100.00;100136.80;106118;1261;252627;-79
2023/11/17 00:57:53;;;;;;;42.60;25.20;;;;;;;4.65;100.00;100139.92;105907;1257;99207;-78
2023/11/17 01:00:38;;;;;;;45.70;25.90;;;;;;;4.63;100.00;100146.24;106013;1257;98095;-80
2023/11/17 01:03:24;;;;;;;45.20;26.10;;;;;;;4.64;100.00;100147.81;106313;1258;98031;-78
2023/11/17 01:06:10;;;;;;;47.00;25.90;;;;;;;4.65;100.00;100148.92;106062;1260;97846;-78
2023/11/17 01:08:56;;;;;;;45.80;26.50;;;;;;;4.65;100.00;100140.88;106053;1260;101477;-78
2023/11/17 01:11:42;;;;;;;47.60;26.40;;;;;;;4.66;100.00;100133.05;105928;1257;99145;-79
2023/11/17 01:14:27;;;;;;;44.90;26.50;;;;;;;4.65;100.00;100124.27;105938;1260;98078;-79
2023/11/17 01:17:13;;;;;;;49.20;27.20;;;;;;;4.65;100.00;100113.56;105927;1270;97975;-78
2023/11/17 01:19:58;;;;;;;52.60;27.60;;;;;;;4.64;100.00;100112.69;105888;1257;98584;-79
2023/11/17 01:22:44;;;;;;;48.80;27.70;;;;;;;4.64;100.00;100112.33;105970;1257;102582;-79
2023/11/17 01:25:34;;;;;;;46.70;28.00;;;;;;;4.63;100.00;100111.98;105784;1257;99237;-79
2023/11/17 01:28:20;;;;;;;49.30;27.10;;;;;;;4.63;100.00;100113.58;105504;1260;99088;-78
2023/11/17 01:31:05;;;;;;;49.90;30.40;;;;;;;4.63;100.00;100114.77;105556;1260;98133;-78
2023/11/17 01:33:51;;;;;;;50.00;27.50;;;;;;;4.62;100.00;100116.10;105832;1261;98613;-78
2023/11/17 01:36:36;;;;;;;45.40;27.50;;;;;;;4.61;100.00;100107.94;106027;1257;101421;-80
2023/11/17 01:39:22;;;;;;;47.40;26.70;;;;;;;4.61;100.00;100109.56;105997;1259;99268;-80
2023/11/17 01:42:08;;;;;;;46.60;26.30;;;;;;;4.62;100.00;100111.91;105914;1261;98995;-80
2023/11/17 01:44:55;;;;;;;51.90;26.70;;;;;;;4.63;100.00;100113.59;105802;1257;98137;-78
2023/11/17 01:47:43;;;;;;;46.20;25.90;;;;;;;4.63;100.00;100108.61;105949;1257;98836;-76
2023/11/17 01:50:28;;;;;;;48.80;28.10;;;;;;;4.63;100.00;100101.31;105829;1259;102597;-78
2023/11/17 01:53:14;;;;;;;42.90;25.30;;;;;;;4.63;100.00;100097.66;105923;1257;100712;-78
2023/11/17 01:56:01;;;;;;;47.50;25.80;;;;;;;4.62;100.00;100092.23;105808;1258;99270;-79
2023/11/17 01:58:48;;;;;;;43.90;26.20;;;;;;;4.62;100.00;100094.39;105686;1257;97986;-79
2023/11/17 02:01:34;;;;;;;48.60;25.90;;;;;;;4.61;100.00;100092.22;105665;1260;98568;-79
2023/11/17 02:04:20;;;;;;;42.00;24.20;;;;;;;4.60;100.00;100090.95;106018;1257;101233;-79
2023/11/17 02:07:23;;;;;;;39.50;24.60;;;;;;;4.57;100.00;100090.68;105846;1257;99177;-78
2023/11/17 02:10:28;;;;;;;46.00;26.00;;;;;;;4.54;100.00;100088.17;105882;1257;98053;-78
2023/11/17 02:13:45;;;;;;;43.30;26.70;;;;;;;4.51;100.00;100087.98;105783;1261;99050;-78
2023/11/17 02:16:36;;;;;;;45.10;25.00;;;;;;;4.49;100.00;100087.47;105886;1259;99174;-78
2023/11/17 02:19:48;;;;;;;;;;;;;;;4.49;100.00;100088.33;105966;1259;101463;-78
2023/11/17 02:22:37;;;;;;;44.00;26.10;;;;;;;4.45;100.00;100088.44;105871;1256;100199;-80
2023/11/17 02:25:23;;;;;;;50.40;26.90;;;;;;;4.44;100.00;100090.34;106003;1256;99059;-78
2023/11/17 02:28:37;;;;;;;41.90;24.70;;;;;;;4.44;100.00;100093.29;105960;1260;97957;-80
2023/11/17 02:31:29;;;;;;;43.20;25.50;;;;;;;4.44;100.00;100092.77;105873;1257;97992;-78
2023/11/17 02:34:14;;;;;;;46.20;26.40;;;;;;;4.44;100.00;100099.48;105861;1256;101405;-79
2023/11/17 02:37:05;;;;;;;41.80;25.00;;;;;;;4.44;100.00;100101.48;105872;1256;100383;-78
2023/11/17 02:39:57;;;;;;;47.60;26.90;;;;;;;4.43;100.00;100103.30;105917;1255;98712;-79
2023/11/17 02:42:42;;;;;;;44.60;24.50;;;;;;;4.44;100.00;100105.64;105569;1260;98089;-79
2023/11/17 02:45:31;;;;;;;47.30;27.00;;;;;;;4.45;100.00;100110.19;105756;1257;98469;-79
2023/11/17 02:48:21;;;;;;;45.80;26.70;;;;;;;4.45;100.00;100111.92;105794;1259;101321;-79
2023/11/17 02:51:19;;;;;;;53.40;27.70;;;;;;;4.44;100.00;100111.52;105886;1257;100587;-80
2023/11/17 02:54:08;;;;;;;43.20;24.60;;;;;;;4.42;100.00;100113.80;105781;1260;97868;-79
2023/11/17 02:56:55;;;;;;;45.70;25.20;;;;;;;4.43;100.00;100108.23;105829;1259;98546;-79
2023/11/17 02:59:42;;;;;;;47.40;25.60;;;;;;;4.44;100.00;100106.19;105982;1259;98543;-79
2023/11/17 03:02:28;;;;;;;47.10;24.60;;;;;;;4.44;100.00;100106.88;105984;1256;102632;-79
2023/11/17 03:05:16;;;;;;;42.10;23.70;;;;;;;4.45;100.00;100103.48;106035;1259;100047;-78
2023/11/17 03:08:02;;;;;;;39.60;23.30;;;;;;;4.44;100.00;100103.36;105900;1259;99013;-79
2023/11/17 03:10:48;;;;;;;38.60;23.30;;;;;;;4.43;100.00;100105.02;105934;1259;97873;-79
2023/11/17 03:13:33;;;;;;;39.80;21.90;;;;;;;4.43;100.00;100100.45;105883;1258;97949;-79
2023/11/17 03:16:23;;;;;;;38.70;21.70;;;;;;;4.43;100.00;100099.41;105924;1259;101352;-79
2023/11/17 03:19:12;;;;;;;;;;;;;;;4.42;100.00;100095.23;105911;1256;100365;-80
2023/11/17 03:21:57;;;;;;;35.00;20.40;;;;;;;4.38;100.00;100092.36;105531;1261;98025;-80
2023/11/17 03:24:43;;;;;;;31.00;18.80;;;;;;;4.35;100.00;100098.13;106215;1262;98052;-81
2023/11/17 03:27:29;;;;;;;33.30;19.60;;;;;;;4.34;100.00;100096.46;105610;1256;99262;-77
2023/11/17 03:30:18;;;;;;;34.70;20.50;;;;;;;4.34;100.00;100096.86;105819;1269;101364;-80
2023/11/17 03:33:03;;;;;;;31.20;18.80;;;;;;;4.35;100.00;100098.16;106045;1259;99189;-78
2023/11/17 03:35:50;;;;;;;37.30;20.30;;;;;;;4.36;100.00;100098.73;105948;1257;97961;-78
2023/11/17 03:38:35;;;;;;;33.90;18.30;;;;;;;4.36;100.00;100098.73;105896;1256;97957;-79
2023/11/17 03:41:22;;;;;;;31.20;18.10;;;;;;;4.35;100.00;100100.94;105943;1256;99244;-80
2023/11/17 03:44:08;;;;;;;30.80;19.60;;;;;;;4.34;100.00;100101.83;105854;1259;101360;-78
2023/11/17 03:46:54;;;;;;;29.10;16.90;;;;;;;4.33;100.00;100097.84;105889;1257;99190;-79
2023/11/17 03:49:43;;;;;;;34.90;18.60;;;;;;;4.32;100.00;100097.27;105846;1257;99103;-79
2023/11/17 03:52:31;;;;;;;28.30;16.60;;;;;;;4.32;100.00;100096.75;106011;1257;97994;-79
2023/11/17 03:55:17;;;;;;;29.80;18.30;;;;;;;4.32;100.00;100100.23;107347;1259;98523;-78
2023/11/17 03:58:02;;;;;;;30.20;16.90;;;;;;;4.32;100.00;100104.11;105900;1255;101388;-79
2023/11/17 04:00:49;;;;;;;31.70;18.80;;;;;;;4.33;100.00;100101.92;105919;1256;99203;-79
2023/11/17 04:03:34;;;;;;;31.00;18.20;;;;;;;4.32;100.00;100103.02;105958;1257;97863;-80
2023/11/17 04:06:20;;;;;;;28.50;17.20;;;;;;;4.33;100.00;100100.27;106382;1259;98001;-79
2023/11/17 04:09:07;;;;;;;31.50;19.10;;;;;;;4.32;100.00;100100.89;105723;1259;97919;-78
2023/11/17 04:11:53;;;;;;;31.70;18.70;;;;;;;4.32;100.00;100097.18;105778;1262;101382;-78
2023/11/17 04:14:39;;;;;;;38.50;21.60;;;;;;;4.32;100.00;100093.90;105505;1257;100554;-78
2023/11/17 04:17:30;;;;;;;31.80;18.40;;;;;;;4.32;100.00;100094.55;105646;1257;98044;-78
2023/11/17 04:20:18;;;;;;;24.60;16.90;;;;;;;4.34;100.00;100092.81;105583;1256;98659;-79
2023/11/17 04:23:05;;;;;;;27.10;17.10;;;;;;;4.34;100.00;100089.21;105855;1260;97960;-78
2023/11/17 04:25:51;;;;;;;26.30;16.50;;;;;;;4.34;100.00;100089.80;105942;1256;101395;-79
2023/11/17 04:28:38;;;;;;;24.70;15.40;;;;;;;4.34;100.00;100092.95;105934;1259;99357;-78
2023/11/17 04:31:23;;;;;;;23.40;15.60;;;;;;;4.34;100.00;100093.11;105791;1257;97922;-78
2023/11/17 04:34:12;;;;;;;24.70;15.80;;;;;;;4.34;100.00;100092.25;106042;1259;97883;-79
2023/11/17 04:36:58;;;;;;;21.70;14.30;;;;;;;4.33;100.00;100094.45;106184;1257;98436;-79
2023/11/17 04:39:44;;;;;;;24.80;14.20;;;;;;;4.32;100.00;100094.10;106227;1256;101354;-79
2023/11/17 04:42:30;;;;;;;22.00;15.00;;;;;;;4.31;100.00;100093.76;106299;1259;99087;-79
2023/11/17 04:45:15;;;;;;;20.80;13.10;;;;;;;4.31;100.00;100095.88;106280;1257;97916;-80
2023/11/17 04:48:04;;;;;;;23.90;14.10;;;;;;;4.28;100.00;100099.55;106054;1256;98066;-78
2023/11/17 04:50:50;;;;;;;23.70;14.50;;;;;;;4.27;100.00;100097.71;105989;1258;97895;-77
2023/11/17 04:53:35;;;;;;;24.40;15.70;;;;;;;4.28;100.00;100100.64;105851;1254;101418;-79
2023/11/17 04:56:21;;;;;;;19.60;13.30;;;;;;;4.30;100.00;100101.54;105862;1256;100412;-79
2023/11/17 04:59:10;;;;;;;22.60;13.90;;;;;;;4.29;100.00;100100.05;105844;1259;97948;-79
2023/11/17 05:01:56;;;;;;;24.10;13.30;;;;;;;4.28;100.00;100097.52;105889;1259;97887;-79
2023/11/17 05:04:42;;;;;;;20.70;13.90;;;;;;;4.27;100.00;100093.14;105911;1257;97906;-77
2023/11/17 05:07:28;;;;;;;21.10;13.50;;;;;;;4.27;100.00;100092.95;106057;1255;101864;-78
2023/11/17 05:10:15;;;;;;;20.50;14.00;;;;;;;4.30;100.00;100092.37;106042;1257;100728;-79
2023/11/17 05:13:01;;;;;;;21.70;12.90;;;;;;;4.31;100.00;100089.77;105883;1257;98543;-79
2023/11/17 05:15:47;;;;;;;19.00;12.80;;;;;;;4.31;100.00;100093.75;106228;1259;98533;-78
2023/11/17 05:18:33;;;;;;;20.50;12.80;;;;;;;4.31;100.00;100093.84;105960;1256;97945;-78
2023/11/17 05:21:19;;;;;;;21.70;12.50;;;;;;;4.30;100.00;100099.56;105997;1257;101391;-78
2023/11/17 05:24:05;;;;;;;25.20;14.60;;;;;;;4.29;100.00;100098.63;106046;1257;99075;-79
2023/11/17 05:26:50;;;;;;;18.80;12.10;;;;;;;4.28;100.00;100096.23;106197;1257;98856;-80
2023/11/17 05:29:36;;;;;;;23.00;14.30;;;;;;;4.28;100.00;100097.09;106141;1259;97892;-81
2023/11/17 05:32:25;;;;;;;18.70;12.80;;;;;;;4.28;100.00;100095.86;106259;1255;97986;-79
2023/11/17 05:35:11;;;;;;;22.10;13.90;;;;;;;4.28;100.00;100093.61;106042;1259;101415;-78
2023/11/17 05:37:57;;;;;;;21.70;13.40;;;;;;;4.29;100.00;100096.02;105835;1256;99138;-79
2023/11/17 05:40:44;;;;;;;19.90;12.30;;;;;;;4.29;100.00;100097.02;106005;1259;97996;-78
2023/11/17 05:43:29;;;;;;;21.00;13.80;;;;;;;4.28;100.00;100099.24;105846;1255;97960;-80
2023/11/17 05:46:15;;;;;;;19.00;12.40;;;;;;;4.28;100.00;100100.61;105817;1257;97900;-80
2023/11/17 05:49:01;;;;;;;19.00;12.60;;;;;;;4.27;100.00;100104.81;106123;1259;101325;-79
2023/11/17 05:51:47;;;;;;;18.80;12.20;;;;;;;4.27;100.00;100112.61;106135;1259;99115;-79
2023/11/17 05:54:33;;;;;;;19.30;12.40;;;;;;;4.26;100.00;100115.69;105939;1259;98181;-80
2023/11/17 05:57:22;;;;;;;17.80;11.20;;;;;;;4.26;100.00;100115.84;105998;1259;97960;-79
2023/11/17 06:00:09;;;;;;;17.70;11.30;;;;;;;4.27;100.00;100115.45;105983;1259;98504;-80
2023/11/17 06:02:57;;;;;;;34.90;11.20;;;;;;;4.27;100.00;100114.95;105940;1259;101410;-79
2023/11/17 06:05:43;;;;;;;20.10;12.30;;;;;;;4.27;100.00;100112.99;106418;1255;100712;-80
2023/11/17 06:08:31;;;;;;;20.80;12.90;;;;;;;4.28;100.00;100118.86;106331;1256;98912;-78
2023/11/17 06:11:23;;;;;;;17.50;11.60;;;;;;;4.26;100.00;100120.08;105713;1257;98047;-79
2023/11/17 06:14:10;;;;;;;18.30;10.90;;;;;;;4.25;100.00;100121.63;105845;1259;97758;-79
2023/11/17 06:16:57;;;;;;;20.40;12.40;;;;;;;4.24;100.00;100126.00;105929;1255;101977;-79
2023/11/17 06:19:42;;;;;;;19.90;11.30;;;;;;;4.24;100.00;100127.38;106388;1256;99114;-80
2023/11/17 06:22:28;;;;;;;14.90;9.90;;;;;;;4.23;100.00;100128.06;106440;1255;98150;-79
2023/11/17 06:25:14;;;;;;;17.00;10.40;;;;;;;4.21;100.00;100132.71;106174;1256;98303;-79
2023/11/17 06:27:59;;;;;;;15.90;10.30;;;;;;;4.20;100.00;100132.94;106276;1259;97982;-79
2023/11/17 06:30:45;;;;;;;15.30;10.40;;;;;;;4.17;100.00;100131.66;106239;1257;102382;-80
2023/11/17 06:33:32;;;;;;;15.90;10.50;;;;;;;4.16;100.00;100130.37;106185;1257;99152;-79
2023/11/17 06:36:18;;;;;;;15.60;11.00;;;;;;;4.16;100.00;100131.73;106176;1259;97824;-80
2023/11/17 06:39:13;;;;;;;17.80;11.60;;;;;;;4.19;100.00;100130.27;106298;1259;99146;-79
2023/11/17 06:41:59;;;;;;;18.00;11.40;;;;;;;4.20;100.00;100134.17;106233;1256;98523;-78
2023/11/17 06:44:45;;;;;;;16.70;10.30;;;;;;;4.21;100.00;100137.42;106144;1255;101385;-78
2023/11/17 06:47:30;;;;;;;16.70;10.40;;;;;;;4.22;100.00;100139.31;105637;1257;99225;-77
2023/11/17 06:50:20;;;;;;;15.00;9.90;;;;;;;4.21;100.00;100141.73;105897;1259;98934;-78
2023/11/17 06:53:06;;;;;;;16.90;10.10;;;;;;;4.17;100.00;100143.17;105885;1257;98047;-78
2023/11/17 06:55:52;;;;;;;18.10;11.20;;;;;;;4.16;100.00;100148.92;106029;1256;98454;-80
2023/11/17 06:58:37;;;;;;;15.50;10.80;;;;;;;4.18;100.00;100147.80;105850;1254;102397;-79
2023/11/17 07:01:24;;;;;;;19.70;12.60;;;;;;;4.19;100.00;100147.58;105837;1259;100902;-79
2023/11/17 07:04:12;;;;;;;16.50;10.70;;;;;;;4.18;100.00;100147.64;105963;1257;97962;-78
2023/11/17 07:06:59;;;;;;;13.10;9.20;;;;;;;4.17;100.00;100150.02;105875;1256;97887;-79
2023/11/17 07:09:44;;;;;;;14.60;9.90;;;;;;;4.17;100.00;100152.54;108215;1255;96012;-78
2023/11/17 07:12:31;;;;;;;17.10;10.20;;;;;;;4.16;100.00;100155.29;105893;1259;101381;-78
2023/11/17 07:15:17;;;;;;;16.40;10.60;;;;;;;4.15;100.00;100158.39;105965;1259;100070;-79
2023/11/17 07:18:03;;;;;;;14.10;9.90;;;;;;;4.16;100.00;100159.69;105878;1259;98075;-79
2023/11/17 07:20:49;;;;;;;17.10;10.90;;;;;;;4.17;100.00;100162.58;105787;1259;98636;-79
2023/11/17 07:23:34;;;;;;;15.30;10.10;;;;;;;4.17;100.00;100165.09;106179;1259;99646;-80
2023/11/17 07:26:20;;;;;;;15.20;10.10;;;;;;;4.17;100.00;100167.39;106170;1256;101344;-79
2023/11/17 07:29:07;;;;;;;16.00;10.50;;;;;;;4.19;100.00;100168.89;106246;1259;99097;-80
2023/11/17 07:31:54;;;;;;;15.00;9.80;;;;;;;4.21;100.00;100170.30;105959;1256;98311;-80
2023/11/17 07:34:39;;;;;;;14.60;10.10;;;;;;;4.21;100.00;100180.04;105938;1259;98579;-79
2023/11/17 07:37:25;;;;;;;16.10;10.50;;;;;;;4.21;100.00;100181.27;105905;1259;98384;-79
2023/11/17 07:40:13;;;;;;;17.00;10.50;;;;;;;4.21;100.00;100181.60;106579;1257;101312;-78
2023/11/17 07:42:58;;;;;;;15.00;10.10;;;;;;;4.20;100.00;100183.27;105961;1257;99281;-79
2023/11/17 07:45:44;;;;;;;17.20;10.60;;;;;;;4.20;100.00;100184.00;106037;1259;98982;-79
2023/11/17 07:48:32;;;;;;;15.40;10.40;;;;;;;4.21;100.00;100184.45;105943;1255;98024;-79
2023/11/17 07:51:18;;;;;;;15.40;9.80;;;;;;;4.21;100.00;100183.45;105806;1257;98478;-78
2023/11/17 07:54:04;;;;;;;15.80;10.80;;;;;;;4.17;100.00;100181.50;105885;1257;101312;-79
2023/11/17 07:56:50;;;;;;;14.40;10.80;;;;;;;4.14;100.00;100181.51;105868;1259;99079;-79
2023/11/17 07:59:36;;;;;;;18.80;10.70;;;;;;;4.10;100.00;100180.66;105775;1259;98716;-78
2023/11/17 08:02:22;;;;;;;16.20;10.60;;;;;;;4.08;100.00;100185.62;106107;1255;98424;-78
2023/11/17 08:05:10;;;;;;;18.70;11.90;;;;;;;4.09;100.00;100188.34;105757;1257;97865;-80
2023/11/17 08:07:55;;;;;;;16.70;10.50;;;;;;;4.10;100.00;100187.52;105976;1255;102442;-79
2023/11/17 08:10:41;;;;;;;17.90;11.00;;;;;;;4.11;100.00;100184.27;105725;1257;99174;-77
2023/11/17 08:13:27;;;;;;;15.90;10.40;;;;;;;4.12;100.00;100185.05;105726;1259;99006;-78
2023/11/17 08:16:12;;;;;;;17.90;10.90;;;;;;;4.12;100.00;100187.83;106374;1256;97969;-83
2023/11/17 08:19:00;;;;;;;16.20;11.20;;;;;;;4.13;100.00;100191.11;106419;1255;98921;-83
2023/11/17 08:21:47;;;;;;;19.00;11.60;;;;;;;4.12;100.00;100192.80;106227;1256;101382;-82
2023/11/17 08:24:33;;;;;;;18.80;11.30;;;;;;;4.12;100.00;100200.19;106331;1256;100394;-83
2023/11/17 08:27:21;;;;;;;16.10;11.40;;;;;;;4.12;100.00;100195.59;106151;1256;99116;-82
2023/11/17 08:30:08;;;;;;;17.20;11.10;;;;;;;4.13;100.00;100196.21;106349;1256;97966;-85
2023/11/17 08:32:54;;;;;;;16.00;11.00;;;;;;;4.17;100.00;100200.24;106051;1257;98468;-84
2023/11/17 08:35:41;;;;;;;19.40;12.10;;;;;;;4.19;100.00;100204.47;106185;1256;101424;-80
2023/11/17 08:38:27;;;;;;;18.90;12.30;;;;;;;4.18;100.00;100205.78;106679;1256;99047;-80
2023/11/17 08:41:16;;;;;;;20.00;12.70;;;;;;;4.19;100.00;100208.54;106272;1255;97964;-80
2023/11/17 08:44:02;;;;;;;19.70;12.40;;;;;;;4.16;100.00;100210.91;106227;1259;97896;-82
2023/11/17 08:46:49;;;;;;;21.40;11.80;;;;;;;4.15;100.00;100215.51;106346;1257;98407;-82
2023/11/17 08:49:36;;;;;;;21.30;14.30;;;;;;;4.13;100.00;100216.20;106103;1259;101453;-82
2023/11/17 08:52:22;;;;;;;24.50;15.70;;;;;;;4.11;100.00;100220.83;106253;1257;99301;-83
2023/11/17 08:55:13;;;;;;;19.60;13.10;;;;;;;4.10;100.00;100224.65;106224;1257;99233;-85
2023/11/17 08:57:58;;;;;;;21.60;13.80;;;;;;;4.12;100.00;100227.66;106217;1256;97951;-81
2023/11/17 09:00:44;;;;;;;20.90;13.30;;;;;;;4.16;100.00;100229.54;105987;1260;99712;-79
2023/11/17 09:03:30;;;;;;;20.90;14.00;;;;;;;4.17;100.00;100232.55;105862;1256;101331;-78
2023/11/17 09:06:18;;;;;;;20.40;13.30;;;;;;;4.16;100.00;100234.94;105760;1259;99175;-78
2023/11/17 09:09:04;;;;;;;21.60;13.60;;;;;;;4.16;100.00;100235.16;105655;1259;99235;-78
2023/11/17 09:11:50;;;;;;;23.00;13.40;;;;;;;4.15;100.00;100232.47;105705;1256;97967;-77
2023/11/17 09:14:36;;;;;;;21.30;13.60;;;;;;;4.13;100.00;100229.65;105587;1259;97887;-76
2023/11/17 09:17:21;;;;;;;20.60;13.00;;;;;;;4.11;100.00;100228.47;105647;1254;101400;-77
2023/11/17 09:20:09;;;;;;;27.10;14.00;;;;;;;4.08;100.00;100229.94;105550;1259;99185;-78
2023/11/17 09:22:55;;;;;;;21.50;13.70;;;;;;;4.07;100.00;100229.73;105656;1275;99086;-77
2023/11/17 09:25:40;;;;;;;21.30;13.40;;;;;;;4.05;100.00;100233.27;108334;1256;96504;-79
2023/11/17 09:28:25;;;;;;;24.20;15.00;;;;;;;4.03;100.00;100236.48;105829;1258;98421;-79
2023/11/17 09:31:12;;;;;;;24.60;15.20;;;;;;;4.01;100.00;100240.25;105587;1259;102595;-78
2023/11/17 09:33:57;;;;;;;23.90;14.00;;;;;;;4.00;100.00;100239.09;105592;1257;99086;-78
2023/11/17 09:36:43;;;;;;;23.70;14.40;;;;;;;4.01;100.00;100241.52;105501;1256;98740;-78
2023/11/17 09:39:29;;;;;;;23.00;13.60;;;;;;;4.01;100.00;100238.00;105547;1259;97874;-77
2023/11/17 09:42:15;;;;;;;20.80;13.60;;;;;;;3.99;100.00;100241.00;105511;1256;99758;-78
2023/11/17 09:45:02;;;;;;;25.80;14.20;;;;;;;3.98;100.00;100242.88;105515;1257;101379;-77
2023/11/17 09:47:57;;;;;;;21.50;14.10;;;;;;;3.98;100.00;100240.02;105618;1259;100336;-77
2023/11/17 09:50:43;;;;;;;24.30;14.90;;;;;;;4.01;100.00;100242.90;106648;1256;99143;-78
2023/11/17 09:53:33;;;;;;;26.20;15.40;;;;;;;4.03;100.00;100241.33;105624;1256;97953;-79
2023/11/17 09:56:19;;;;;;;35.10;21.30;;;;;;;4.03;100.00;100238.14;105633;1257;97942;-80
2023/11/17 09:59:04;;;;;;;24.80;15.60;;;;;;;4.04;100.00;100241.48;105777;1256;102018;-78
2023/11/17 10:01:50;;;;;;;20.40;14.10;;;;;;;4.05;100.00;100244.23;105656;1257;100362;-78
2023/11/17 10:04:35;;;;;;;24.60;13.70;;;;;;;4.06;100.00;100246.09;105772;1257;98047;-78
2023/11/17 10:07:24;;;;;;;23.80;14.70;;;;;;;4.07;100.00;100244.57;105679;1256;97896;-76
2023/11/17 10:10:14;;;;;;;26.10;13.50;;;;;;;4.07;100.00;100242.13;105749;1256;97886;-77
2023/11/17 10:13:01;;;;;;;22.20;13.80;;;;;;;4.05;100.00;100243.34;106359;1259;101350;-78
2023/11/17 10:15:50;;;;;;;24.10;13.20;;;;;;;4.04;100.00;100244.85;105633;1259;99057;-77
2023/11/17 10:18:37;;;;;;;22.80;13.00;;;;;;;4.02;100.00;100244.66;105526;1257;99015;-76
2023/11/17 10:21:23;;;;;;;21.60;13.00;;;;;;;4.01;100.00;100246.09;105632;1259;98482;-77
2023/11/17 10:24:10;;;;;;;24.50;15.00;;;;;;;4.00;100.00;100245.52;105676;1257;98497;-77
2023/11/17 10:26:56;;;;;;;44.10;23.10;;;;;;;4.00;100.00;100249.69;105566;1257;102565;-76
2023/11/17 10:29:47;;;;;;;29.80;17.50;;;;;;;4.04;100.00;100248.95;105630;1259;100631;-78
2023/11/17 10:32:36;;;;;;;25.40;16.00;;;;;;;4.19;100.00;100245.95;105577;1257;97957;-75
2023/11/17 10:35:25;;;;;;;25.50;15.50;;;;;;;4.37;100.00;100246.27;105919;1257;97963;-77
2023/11/17 10:38:19;;;;;;;29.10;15.30;;;;;;;4.51;100.00;100243.21;105639;1256;98399;-77
2023/11/17 10:41:35;;;;;;;21.00;13.90;;;;;;;4.61;100.00;100248.20;105748;1257;101433;-79
2023/11/17 10:44:31;;;;;;;20.70;13.60;;;;;;;4.72;100.00;100250.75;105819;1257;99178;-78
2023/11/17 10:47:17;;;;;;;23.10;14.60;;;;;;;4.82;100.00;100253.77;105720;1257;98485;-78
2023/11/17 10:50:10;;;;;;;23.90;13.70;;;;;;;4.89;100.00;100255.90;105591;1259;97862;-77
2023/11/17 10:52:57;;;;;;;21.70;13.80;;;;;;;4.89;100.00;100253.75;105476;1255;98181;-77
2023/11/17 10:55:42;;;;;;;22.60;14.30;;;;;;;4.94;100.00;100255.92;105644;1256;101331;-77
2023/11/17 10:58:29;;;;;;;22.10;13.70;;;;;;;5.01;100.00;100254.77;105425;1257;100484;-78
2023/11/17 11:01:14;;;;;;;20.10;13.10;;;;;;;5.07;100.00;100261.39;105514;1259;99404;-78
2023/11/17 11:04:01;;;;;;;21.70;14.00;;;;;;;5.10;100.00;100265.19;105557;1256;97954;-78
2023/11/17 11:06:46;;;;;;;20.00;12.90;;;;;;;5.11;100.00;100266.48;105523;1256;97983;-78
2023/11/17 11:09:35;;;;;;;32.70;19.40;;;;;;;5.11;100.00;100269.77;105664;1259;102733;-77
2023/11/17 11:12:23;;;;;;;50.40;29.80;;;;;;;5.07;100.00;100271.11;105843;1257;99196;-83
2023/11/17 11:15:15;;;;;;;33.80;22.50;;;;;;;5.04;100.00;100274.45;106508;1257;98710;-80
2023/11/17 11:18:06;;;;;;;36.80;24.70;;;;;;;5.01;100.00;100270.16;106444;1259;97826;-83
2023/11/17 11:20:54;;;;;;;27.40;19.50;;;;;;;4.97;100.00;100275.35;106428;1262;97943;-83
2023/11/17 11:23:40;;;;;;;33.20;23.20;;;;;;;4.92;100.00;100278.77;106347;1257;102778;-82
2023/11/17 11:26:27;;;;;;;24.90;17.60;;;;;;;4.88;100.00;100273.02;106225;1256;99134;-81
2023/11/17 11:29:14;;;;;;;18.80;13.40;;;;;;;4.84;100.00;100273.36;106573;1257;98864;-82
2023/11/17 11:32:00;;;;;;;26.60;15.70;;;;;;;4.79;100.00;100272.20;106243;1262;98236;-82
2023/11/17 11:34:46;;;;;;;26.10;18.90;;;;;;;4.74;100.00;100274.27;106468;1259;98715;-81
2023/11/17 11:37:33;;;;;;;21.70;15.10;;;;;;;4.67;100.00;100277.27;106415;1257;101371;-81
2023/11/17 11:40:20;;;;;;;19.40;13.30;;;;;;;4.61;100.00;100280.69;106502;1256;100479;-82
2023/11/17 11:43:06;;;;;;;18.20;13.20;;;;;;;4.57;100.00;100284.49;106244;1257;98059;-80
2023/11/17 11:45:53;;;;;;;17.40;13.50;;;;;;;4.55;100.00;100283.66;106800;1259;97786;-81
2023/11/17 11:48:40;;;;;;;17.30;12.10;;;;;;;4.53;100.00;100282.25;106752;1259;98832;-82
2023/11/17 11:51:29;;;;;;;16.90;13.10;;;;;;;4.49;100.00;100283.53;106813;1256;102656;-84
2023/11/17 11:54:17;;;;;;;16.90;12.20;;;;;;;4.47;100.00;100286.20;106480;1259;99136;-80
2023/11/17 11:57:23;;;;;;;16.50;11.50;;;;;;;4.45;100.00;100289.94;106364;1256;97973;-78
2023/11/17 12:00:12;;;;;;;14.20;9.40;;;;;;;4.42;100.00;100294.91;105842;1259;98885;-77
2023/11/17 12:03:01;;;;;;;14.50;10.30;;;;;;;4.36;100.00;100299.94;105607;1257;99671;-77
2023/11/17 12:05:46;;;;;;;13.70;10.20;;;;;;;4.30;100.00;100298.73;105843;1259;101359;-79
2023/11/17 12:08:32;;;;;;;12.90;9.80;;;;;;;4.27;100.00;100302.61;106003;1257;100514;-80
2023/11/17 12:11:18;;;;;;;15.40;10.00;;;;;;;4.22;100.00;100300.44;105900;1259;97865;-78
2023/11/17 12:14:07;;;;;;;15.20;10.20;;;;;;;4.19;100.00;100301.83;105909;1257;97956;-79
2023/11/17 12:16:54;;;;;;;14.60;10.50;;;;;;;4.17;100.00;100302.17;105971;1256;98412;-80
2023/11/17 12:19:40;;;;;;;15.40;10.00;;;;;;;4.13;100.00;100303.48;106543;1259;101434;-82
2023/11/17 12:22:56;;;;;;;14.90;10.60;;;;;;;4.08;100.00;100304.71;106195;1254;99161;-81
2023/11/17 12:25:42;;;;;;;15.80;11.30;;;;;;;3.98;100.00;100304.66;106498;1259;97970;-81
2023/11/17 12:28:30;;;;;;;16.50;12.00;;;;;;;3.89;100.00;100305.94;106455;1262;98046;-80
2023/11/17 12:31:17;;;;;;;16.50;11.60;;;;;;;3.83;100.00;100311.24;106304;1257;97956;-81